createdAt,value
2016-02-22T00:00:25.832Z,14.12
2016-02-22T00:01:25.804Z,13.99
2016-02-22T00:02:25.791Z,14.02
2016-02-22T00:03:25.762Z,14.07
2016-02-22T00:04:25.734Z,14.13
2016-02-22T00:05:25.802Z,14.1
2016-02-22T00:06:25.961Z,14.07
2016-02-22T00:07:25.667Z,14.1
2016-02-22T00:08:25.653Z,14.21
2016-02-22T00:09:25.610Z,14.1
2016-02-22T00:10:25.612Z,14.16
2016-02-22T00:11:25.568Z,14.16
2016-02-22T00:12:25.555Z,14.1
2016-02-22T00:13:25.527Z,14.16
2016-02-22T00:14:25.514Z,14.2
2016-02-22T00:15:25.500Z,14.19
2016-02-22T00:16:25.461Z,14.19
2016-02-22T00:17:25.433Z,14.17
2016-02-22T00:18:25.514Z,14.2
2016-02-22T00:19:25.438Z,14.19
2016-02-22T00:20:25.363Z,14.21
2016-02-22T00:21:25.349Z,14.07
2016-02-22T00:22:25.321Z,14.2
2016-02-22T00:23:25.293Z,14.14
2016-02-22T00:24:25.296Z,14.17
2016-02-22T00:25:25.235Z,14.14
2016-02-22T00:26:25.223Z,14.16
2016-02-22T00:27:25.194Z,14.2
2016-02-22T00:28:25.165Z,14.21
2016-02-22T00:29:25.168Z,14.17
2016-02-22T00:30:25.124Z,14.21
2016-02-22T00:31:25.112Z,14.17
2016-02-22T00:32:25.067Z,14.2
2016-02-22T00:33:25.054Z,14.2
2016-02-22T00:34:25.041Z,14.2
2016-02-22T00:35:24.997Z,14.21
2016-02-22T00:36:24.984Z,14.21
2016-02-22T00:37:24.970Z,14.21
2016-02-22T00:38:24.942Z,14.19
2016-02-22T00:39:24.914Z,14.2
2016-02-22T00:40:24.901Z,14.21
2016-02-22T00:41:24.872Z,14.2
2016-02-22T00:42:24.844Z,14.21
2016-02-22T00:43:24.816Z,14.16
2016-02-22T00:44:24.803Z,14.25
2016-02-22T00:45:24.774Z,14.21
2016-02-22T00:46:24.744Z,14.21
2016-02-22T00:47:24.717Z,14.2
2016-02-22T00:48:24.704Z,14.13
2016-02-22T00:49:24.722Z,14.13
2016-02-22T00:50:24.646Z,14.19
2016-02-22T00:51:24.650Z,14.2
2016-02-22T00:52:24.699Z,14.21
2016-02-22T00:53:24.592Z,14.12
2016-02-22T00:54:24.563Z,14.16
2016-02-22T00:55:24.535Z,14.17
2016-02-22T00:56:24.522Z,14.17
2016-02-22T00:57:24.493Z,14.27
2016-02-22T00:58:24.481Z,14.2
2016-02-22T00:59:24.451Z,14.24
2016-02-22T01:00:24.424Z,14.2
2016-02-22T01:01:24.410Z,14.25
2016-02-22T01:02:24.366Z,14.21
2016-02-22T01:03:24.573Z,14.24
2016-02-22T01:04:24.357Z,14.19
2016-02-22T01:05:24.312Z,14.16
2016-02-22T01:06:24.267Z,14.24
2016-02-22T01:07:24.271Z,14.24
2016-02-22T01:08:24.273Z,14.19
2016-02-22T01:09:24.214Z,14.17
2016-02-22T01:10:24.200Z,14.25
2016-02-22T01:11:24.172Z,14.24
2016-02-22T01:12:24.127Z,14.19
2016-02-22T01:13:24.114Z,14.24
2016-02-22T01:14:24.086Z,14.13
2016-02-22T01:15:24.058Z,14.19
2016-02-22T01:16:24.075Z,14.21
2016-02-22T01:17:24.016Z,14.2
2016-02-22T01:18:24.003Z,14.21
2016-02-22T01:19:23.974Z,14.24
2016-02-22T01:20:23.946Z,14.17
2016-02-22T01:21:23.949Z,14.25
2016-02-22T01:22:23.888Z,14.19
2016-02-22T01:23:23.876Z,14.17
2016-02-22T01:24:23.847Z,14.25
2016-02-22T01:25:23.834Z,14.2
2016-02-22T01:26:23.806Z,14.2
2016-02-22T01:27:23.777Z,14.14
2016-02-22T01:28:23.780Z,14.17
2016-02-22T01:29:23.735Z,14.2
2016-02-22T01:30:23.723Z,14.17
2016-02-22T01:31:23.679Z,14.19
2016-02-22T01:32:23.681Z,14.17
2016-02-22T01:33:23.684Z,14.17
2016-02-22T01:34:23.624Z,14.19
2016-02-22T01:35:23.611Z,14.2
2016-02-22T01:36:23.614Z,14.2
2016-02-22T01:37:23.554Z,14.13
2016-02-22T01:38:23.526Z,14.21
2016-02-22T01:39:23.512Z,14.19
2016-02-22T01:40:23.469Z,14.24
2016-02-22T01:41:23.456Z,14.2
2016-02-22T01:42:23.427Z,14.21
2016-02-22T01:43:23.398Z,14.19
2016-02-22T01:44:23.417Z,14.19
2016-02-22T01:45:23.357Z,14.27
2016-02-22T01:46:23.344Z,14.17
2016-02-22T01:47:23.316Z,14.21
2016-02-22T01:48:23.303Z,14.16
2016-02-22T01:49:23.352Z,14.2
2016-02-22T01:50:23.246Z,14.2
2016-02-22T01:51:23.217Z,14.2
2016-02-22T01:52:23.188Z,14.16
2016-02-22T01:53:23.207Z,14.25
2016-02-22T01:54:23.147Z,14.19
2016-02-22T01:55:23.134Z,14.2
2016-02-22T01:56:23.137Z,14.16
2016-02-22T01:57:23.077Z,14.2
2016-02-22T01:58:23.063Z,14.2
2016-02-22T01:59:23.035Z,14.17
2016-02-22T02:00:23.179Z,14.19
2016-02-22T02:01:22.978Z,14.2
2016-02-22T02:02:22.949Z,14.27
2016-02-22T02:03:22.952Z,14.21
2016-02-22T02:04:22.909Z,14.16
2016-02-22T02:05:22.911Z,14.2
2016-02-22T02:06:22.867Z,14.2
2016-02-22T02:07:22.870Z,14.17
2016-02-22T02:08:22.825Z,14.2
2016-02-22T02:09:22.812Z,14.21
2016-02-22T02:10:22.784Z,14.14
2016-02-22T02:11:22.739Z,14.2
2016-02-22T02:12:22.711Z,14.16
2016-02-22T02:13:22.698Z,14.19
2016-02-22T02:14:22.685Z,14.16
2016-02-22T02:15:22.656Z,14.2
2016-02-22T02:16:22.627Z,14.24
2016-02-22T02:17:22.599Z,14.2
2016-02-22T02:18:22.586Z,14.2
2016-02-22T02:19:22.573Z,14.21
2016-02-22T02:20:22.529Z,14.19
2016-02-22T02:21:22.516Z,14.2
2016-02-22T02:22:22.519Z,14.19
2016-02-22T02:23:22.521Z,14.19
2016-02-22T02:24:22.447Z,14.2
2016-02-22T02:25:22.418Z,14.25
2016-02-22T02:26:22.389Z,14.27
2016-02-22T02:27:22.377Z,14.27
2016-02-22T02:28:22.363Z,14.2
2016-02-22T02:29:22.319Z,14.24
2016-02-22T02:30:22.291Z,14.19
2016-02-22T02:31:22.293Z,14.24
2016-02-22T02:32:22.249Z,14.25
2016-02-22T02:33:22.237Z,14.24
2016-02-22T02:34:22.207Z,14.14
2016-02-22T02:35:22.179Z,14.25
2016-02-22T02:36:22.166Z,14.19
2016-02-22T02:37:22.278Z,14.16
2016-02-22T02:38:22.140Z,14.2
2016-02-22T02:39:22.128Z,14.19
2016-02-22T02:40:22.067Z,14.19
2016-02-22T02:41:22.054Z,14.21
2016-02-22T02:42:22.026Z,14.2
2016-02-22T02:43:21.981Z,14.25
2016-02-22T02:44:21.969Z,14.17
2016-02-22T02:45:21.986Z,14.2
2016-02-22T02:46:21.927Z,14.19
2016-02-22T02:47:21.899Z,14.19
2016-02-22T02:48:21.869Z,14.24
2016-02-22T02:49:21.857Z,14.19
2016-02-22T02:50:21.828Z,14.21
2016-02-22T02:51:21.815Z,14.2
2016-02-22T02:52:22.052Z,14.2
2016-02-22T02:53:21.743Z,14.13
2016-02-22T02:54:21.745Z,14.28
2016-02-22T02:55:21.732Z,14.16
2016-02-22T02:56:21.688Z,14.16
2016-02-22T02:57:21.785Z,14.2
2016-02-22T02:58:21.631Z,14.25
2016-02-22T02:59:21.618Z,14.2
2016-02-22T03:00:21.605Z,14.24
2016-02-22T03:01:21.561Z,14.19
2016-02-22T03:02:21.564Z,14.19
2016-02-22T03:03:21.504Z,14.19
2016-02-22T03:04:21.507Z,14.21
2016-02-22T03:05:21.479Z,14.21
2016-02-22T03:06:21.450Z,14.19
2016-02-22T03:07:21.437Z,14.21
2016-02-22T03:08:21.409Z,14.21
2016-02-22T03:09:21.364Z,14.21
2016-02-22T03:10:21.351Z,14.2
2016-02-22T03:11:21.339Z,14.16
2016-02-22T03:12:21.309Z,14.17
2016-02-22T03:13:21.297Z,14.25
2016-02-22T03:14:21.252Z,14.17
2016-02-22T03:15:21.240Z,14.21
2016-02-22T03:16:21.227Z,14.14
2016-02-22T03:17:21.182Z,14.17
2016-02-22T03:18:21.169Z,14.21
2016-02-22T03:19:21.142Z,14.21
2016-02-22T03:20:21.113Z,14.17
2016-02-22T03:21:21.115Z,14.21
2016-02-22T03:22:21.072Z,14.17
2016-02-22T03:23:21.042Z,14.2
2016-02-22T03:24:21.044Z,14.25
2016-02-22T03:25:21.001Z,14.17
2016-02-22T03:26:20.988Z,14.17
2016-02-22T03:27:20.960Z,14.1
2016-02-22T03:28:20.946Z,14.19
2016-02-22T03:29:20.902Z,14.17
2016-02-22T03:30:20.890Z,14.21
2016-02-22T03:31:20.877Z,14.16
2016-02-22T03:32:20.879Z,14.17
2016-02-22T03:33:20.819Z,14.2
2016-02-22T03:34:20.822Z,14.1
2016-02-22T03:35:20.762Z,14.16
2016-02-22T03:36:20.749Z,14.14
2016-02-22T03:37:20.720Z,14.14
2016-02-22T03:38:20.707Z,14.1
2016-02-22T03:39:20.664Z,14.06
2016-02-22T03:40:20.651Z,14.1
2016-02-22T03:41:20.637Z,14.07
2016-02-22T03:42:20.609Z,14.06
2016-02-22T03:43:20.596Z,14.14
2016-02-22T03:44:20.552Z,14.06
2016-02-22T03:45:20.539Z,14.1
2016-02-22T03:46:20.526Z,14.02
2016-02-22T03:47:20.482Z,14.04
2016-02-22T03:48:20.469Z,14.01
2016-02-22T03:49:20.628Z,14.02
2016-02-22T03:50:20.427Z,14.1
2016-02-22T03:51:20.383Z,14.04
2016-02-22T03:52:20.355Z,14.09
2016-02-22T03:53:20.373Z,14.13
2016-02-22T03:54:20.329Z,14.09
2016-02-22T03:55:20.300Z,14.02
2016-02-22T03:56:20.272Z,14.02
2016-02-22T03:57:20.275Z,14.12
2016-02-22T03:58:20.230Z,14.06
2016-02-22T03:59:20.218Z,14.04
2016-02-22T04:00:20.189Z,14.07
2016-02-22T04:01:20.176Z,14.07
2016-02-22T04:02:20.132Z,14.04
2016-02-22T04:03:20.119Z,14.04
2016-02-22T04:04:20.090Z,14.07
2016-02-22T04:05:20.062Z,14.06
2016-02-22T04:06:20.049Z,14.06
2016-02-22T04:07:20.020Z,14.02
2016-02-22T04:08:19.976Z,14.07
2016-02-22T04:09:19.963Z,14.02
2016-02-22T04:10:19.950Z,14.07
2016-02-22T04:11:19.906Z,14.02
2016-02-22T04:12:19.878Z,13.99
2016-02-22T04:13:19.881Z,13.99
2016-02-22T04:14:19.836Z,14.12
2016-02-22T04:15:19.823Z,13.98
2016-02-22T04:16:19.810Z,14.02
2016-02-22T04:17:19.766Z,14.02
2016-02-22T04:18:19.753Z,13.99
2016-02-22T04:19:19.724Z,14.04
2016-02-22T04:20:19.680Z,13.99
2016-02-22T04:21:19.714Z,14.01
2016-02-22T04:22:19.638Z,13.99
2016-02-22T04:23:19.672Z,14.02
2016-02-22T04:24:19.613Z,14.04
2016-02-22T04:25:19.630Z,13.99
2016-02-22T04:26:19.555Z,14.09
2016-02-22T04:27:19.527Z,13.98
2016-02-22T04:28:19.513Z,13.98
2016-02-22T04:29:19.469Z,13.96
2016-02-22T04:30:19.472Z,14.02
2016-02-22T04:31:19.429Z,14.04
2016-02-22T04:32:19.415Z,13.99
2016-02-22T04:33:19.387Z,14.04
2016-02-22T04:34:19.358Z,14.04
2016-02-22T04:35:19.329Z,13.98
2016-02-22T04:36:19.317Z,13.99
2016-02-22T04:37:19.320Z,13.99
2016-02-22T04:38:19.276Z,13.98
2016-02-22T04:39:19.231Z,13.99
2016-02-22T04:40:19.218Z,13.95
2016-02-22T04:41:19.283Z,13.98
2016-02-22T04:42:19.193Z,13.98
2016-02-22T04:43:18.992Z,13.98
2016-02-22T04:44:19.150Z,13.98
2016-02-22T04:45:19.123Z,13.98
2016-02-22T04:46:19.062Z,13.95
2016-02-22T04:47:19.034Z,13.96
2016-02-22T04:48:19.020Z,14.02
2016-02-22T04:49:18.993Z,13.92
2016-02-22T04:50:18.995Z,13.99
2016-02-22T04:51:18.935Z,14.01
2016-02-22T04:52:19.156Z,13.94
2016-02-22T04:53:18.940Z,14.02
2016-02-22T04:54:18.897Z,13.98
2016-02-22T04:55:18.852Z,13.98
2016-02-22T04:56:18.871Z,13.88
2016-02-22T04:57:18.858Z,13.94
2016-02-22T04:58:18.766Z,13.96
2016-02-22T04:59:18.754Z,13.96
2016-02-22T05:00:18.771Z,13.91
2016-02-22T05:01:18.728Z,13.92
2016-02-22T05:02:18.699Z,13.95
2016-02-22T05:03:18.671Z,13.89
2016-02-22T05:04:18.658Z,13.91
2016-02-22T05:05:18.615Z,13.94
2016-02-22T05:06:18.587Z,13.94
2016-02-22T05:07:18.590Z,13.92
2016-02-22T05:08:18.529Z,13.92
2016-02-22T05:09:18.548Z,13.94
2016-02-22T05:10:18.489Z,13.89
2016-02-22T05:11:18.475Z,13.89
2016-02-22T05:12:18.431Z,13.92
2016-02-22T05:13:18.450Z,13.94
2016-02-22T05:14:18.390Z,13.95
2016-02-22T05:15:18.361Z,13.92
2016-02-22T05:16:18.348Z,13.94
2016-02-22T05:17:18.320Z,13.94
2016-02-22T05:18:18.306Z,13.92
2016-02-22T05:19:18.277Z,13.91
2016-02-22T05:20:18.265Z,13.94
2016-02-22T05:21:18.253Z,13.92
2016-02-22T05:22:18.192Z,13.94
2016-02-22T05:23:18.194Z,13.91
2016-02-22T05:24:18.198Z,13.95
2016-02-22T05:25:18.154Z,13.88
2016-02-22T05:26:18.093Z,13.84
2016-02-22T05:27:18.080Z,13.91
2016-02-22T05:28:18.053Z,13.95
2016-02-22T05:29:18.024Z,13.92
2016-02-22T05:30:18.026Z,13.94
2016-02-22T05:31:17.982Z,13.89
2016-02-22T05:32:17.954Z,13.92
2016-02-22T05:33:17.940Z,13.88
2016-02-22T05:34:17.928Z,13.88
2016-02-22T05:35:17.899Z,13.89
2016-02-22T05:36:17.887Z,13.95
2016-02-22T05:37:17.842Z,13.87
2016-02-22T05:38:17.845Z,13.84
2016-02-22T05:39:17.784Z,13.92
2016-02-22T05:40:17.787Z,13.87
2016-02-22T05:41:17.743Z,13.94
2016-02-22T05:42:17.731Z,13.87
2016-02-22T05:43:17.702Z,13.83
2016-02-22T05:44:17.923Z,13.91
2016-02-22T05:45:17.676Z,13.88
2016-02-22T05:46:17.616Z,13.91
2016-02-22T05:47:17.603Z,13.87
2016-02-22T05:48:17.591Z,13.89
2016-02-22T05:49:17.640Z,13.91
2016-02-22T05:50:17.533Z,13.91
2016-02-22T05:51:17.520Z,13.91
2016-02-22T05:52:17.492Z,13.81
2016-02-22T05:53:17.682Z,13.89
2016-02-22T05:54:17.466Z,13.84
2016-02-22T05:55:17.438Z,13.87
2016-02-22T05:56:17.378Z,13.91
2016-02-22T05:57:17.380Z,13.84
2016-02-22T05:58:17.335Z,13.84
2016-02-22T05:59:17.308Z,13.91
2016-02-22T06:00:17.310Z,13.87
2016-02-22T06:01:17.266Z,13.87
2016-02-22T06:02:17.253Z,13.91
2016-02-22T06:03:17.241Z,13.92
2016-02-22T06:04:17.212Z,13.91
2016-02-22T06:05:17.182Z,13.88
2016-02-22T06:06:17.140Z,13.91
2016-02-22T06:07:17.126Z,13.88
2016-02-22T06:08:17.097Z,13.92
2016-02-22T06:09:17.096Z,13.91
2016-02-22T06:10:17.040Z,13.92
2016-02-22T06:11:17.013Z,13.83
2016-02-22T06:12:16.972Z,13.89
2016-02-22T06:13:16.947Z,13.88
2016-02-22T06:14:16.908Z,13.87
2016-02-22T06:15:16.875Z,13.91
2016-02-22T06:16:16.873Z,13.88
2016-02-22T06:17:16.809Z,13.84
2016-02-22T06:18:16.775Z,13.92
2016-02-22T06:19:16.774Z,13.89
2016-02-22T06:20:16.714Z,13.83
2016-02-22T06:21:16.699Z,13.87
2016-02-22T06:22:16.683Z,13.91
2016-02-22T06:23:16.638Z,13.89
2016-02-22T06:24:16.625Z,13.95
2016-02-22T06:25:16.595Z,13.87
2016-02-22T06:26:16.597Z,13.84
2016-02-22T06:27:16.395Z,13.89
2016-02-22T06:28:16.522Z,13.88
2016-02-22T06:29:16.509Z,13.84
2016-02-22T06:30:16.464Z,13.87
2016-02-22T06:31:16.451Z,13.89
2016-02-22T06:32:16.266Z,13.84
2016-02-22T06:33:16.424Z,13.89
2016-02-22T06:34:16.396Z,13.84
2016-02-22T06:35:16.351Z,13.88
2016-02-22T06:36:16.338Z,13.92
2016-02-22T06:37:16.310Z,13.88
2016-02-22T06:38:16.281Z,13.89
2016-02-22T06:39:16.253Z,13.83
2016-02-22T06:40:16.224Z,13.84
2016-02-22T06:41:15.696Z,13.91
2016-02-22T06:42:16.229Z,13.91
2016-02-22T06:43:16.184Z,13.87
2016-02-22T06:44:16.142Z,13.87
2016-02-22T06:45:16.128Z,13.83
2016-02-22T06:46:16.147Z,13.88
2016-02-22T06:47:16.087Z,13.89
2016-02-22T06:48:16.090Z,13.89
2016-02-22T06:49:16.014Z,13.95
2016-02-22T06:50:16.016Z,13.92
2016-02-22T06:51:16.003Z,13.91
2016-02-22T06:52:15.945Z,13.88
2016-02-22T06:53:15.916Z,13.89
2016-02-22T06:54:15.918Z,13.84
2016-02-22T06:55:15.858Z,13.87
2016-02-22T06:56:15.861Z,13.95
2016-02-22T06:57:15.832Z,13.88
2016-02-22T06:58:15.788Z,13.95
2016-02-22T06:59:15.791Z,13.88
2016-02-22T07:00:15.747Z,13.92
2016-02-22T07:01:15.733Z,13.92
2016-02-22T07:02:15.705Z,13.89
2016-02-22T07:03:15.693Z,13.95
2016-02-22T07:04:15.695Z,13.91
2016-02-22T07:05:15.635Z,13.83
2016-02-22T07:06:15.607Z,13.92
2016-02-22T07:07:15.579Z,13.92
2016-02-22T07:08:15.549Z,13.89
2016-02-22T07:09:15.552Z,13.94
2016-02-22T07:10:15.507Z,13.96
2016-02-22T07:11:15.479Z,13.94
2016-02-22T07:12:15.451Z,13.96
2016-02-22T07:13:15.453Z,13.91
2016-02-22T07:14:15.440Z,13.92
2016-02-22T07:15:15.646Z,13.89
2016-02-22T07:16:15.368Z,13.95
2016-02-22T07:17:15.339Z,13.92
2016-02-22T07:18:15.342Z,13.92
2016-02-22T07:19:15.298Z,13.94
2016-02-22T07:20:15.503Z,13.94
2016-02-22T07:21:15.241Z,13.96
2016-02-22T07:22:15.227Z,13.92
2016-02-22T07:23:15.200Z,13.91
2016-02-22T07:24:15.170Z,13.92
2016-02-22T07:25:15.141Z,13.96
2016-02-22T07:26:15.130Z,13.94
2016-02-22T07:27:15.100Z,13.95
2016-02-22T07:28:15.088Z,13.94
2016-02-22T07:29:15.043Z,13.92
2016-02-22T07:30:15.047Z,13.96
2016-02-22T07:31:15.002Z,13.91
2016-02-22T07:32:15.035Z,13.95
2016-02-22T07:33:14.961Z,13.94
2016-02-22T07:34:14.932Z,13.91
2016-02-22T07:35:14.919Z,13.98
2016-02-22T07:36:14.890Z,13.95
2016-02-22T07:37:14.893Z,13.92
2016-02-22T07:38:14.833Z,13.94
2016-02-22T07:39:14.820Z,13.95
2016-02-22T07:40:14.807Z,14.01
2016-02-22T07:41:14.779Z,14.01
2016-02-22T07:42:14.751Z,13.98
2016-02-22T07:43:14.987Z,13.99
2016-02-22T07:44:14.693Z,14.02
2016-02-22T07:45:14.712Z,13.92
2016-02-22T07:46:14.636Z,13.95
2016-02-22T07:47:14.639Z,13.98
2016-02-22T07:48:14.610Z,13.91
2016-02-22T07:49:14.581Z,14.02
2016-02-22T07:50:14.569Z,14.06
2016-02-22T07:51:14.540Z,13.98
2016-02-22T07:52:14.496Z,13.98
2016-02-22T07:53:14.483Z,14.04
2016-02-22T07:54:14.455Z,13.96
2016-02-22T07:55:14.442Z,13.99
2016-02-22T07:56:14.397Z,14.04
2016-02-22T07:57:14.384Z,14.04
2016-02-22T07:58:14.372Z,14.01
2016-02-22T07:59:14.343Z,14.01
2016-02-22T08:00:14.314Z,14.04
2016-02-22T08:01:14.286Z,13.99
2016-02-22T08:02:14.258Z,13.96
2016-02-22T08:03:14.260Z,14.01
2016-02-22T08:04:14.215Z,14.02
2016-02-22T08:05:14.219Z,14.01
2016-02-22T08:06:14.158Z,13.98
2016-02-22T08:07:14.160Z,13.96
2016-02-22T08:08:14.164Z,14.02
2016-02-22T08:09:14.089Z,14.01
2016-02-22T08:10:14.076Z,13.96
2016-02-22T08:11:14.062Z,14.07
2016-02-22T08:12:14.035Z,14.01
2016-02-22T08:13:14.021Z,13.99
2016-02-22T08:14:13.976Z,14.02
2016-02-22T08:15:13.964Z,14.06
2016-02-22T08:16:13.935Z,14.07
2016-02-22T08:17:13.907Z,14.04
2016-02-22T08:18:13.894Z,14.07
2016-02-22T08:19:13.850Z,14.01
2016-02-22T08:20:13.837Z,14.02
2016-02-22T08:21:13.824Z,14.07
2016-02-22T08:22:13.780Z,14.09
2016-02-22T08:23:13.767Z,14.04
2016-02-22T08:24:13.582Z,14.02
2016-02-22T08:25:13.709Z,14.04
2016-02-22T08:26:13.697Z,14.06
2016-02-22T08:27:13.668Z,14.07
2016-02-22T08:28:13.639Z,14.02
2016-02-22T08:29:13.830Z,14.12
2016-02-22T08:30:13.614Z,14.02
2016-02-22T08:31:13.569Z,14.06
2016-02-22T08:32:13.557Z,14.06
2016-02-22T08:33:13.544Z,14.06
2016-02-22T08:34:13.515Z,14.04
2016-02-22T08:35:13.471Z,14.04
2016-02-22T08:36:13.474Z,14.07
2016-02-22T08:37:13.429Z,14.13
2016-02-22T08:38:13.402Z,14.12
2016-02-22T08:39:13.404Z,14.16
2016-02-22T08:40:13.360Z,14.16
2016-02-22T08:41:13.332Z,14.07
2016-02-22T08:42:13.318Z,14.2
2016-02-22T08:43:13.290Z,14.14
2016-02-22T08:44:13.277Z,14.19
2016-02-22T08:45:13.279Z,14.2
2016-02-22T08:46:13.235Z,14.12
2016-02-22T08:47:13.238Z,14.14
2016-02-22T08:48:13.225Z,14.27
2016-02-22T08:49:13.149Z,14.2
2016-02-22T08:50:13.120Z,14.16
2016-02-22T08:51:13.109Z,14.17
2016-02-22T08:52:13.064Z,14.19
2016-02-22T08:53:13.081Z,14.2
2016-02-22T08:54:13.019Z,14.21
2016-02-22T08:55:13.006Z,14.21
2016-02-22T08:56:12.977Z,14.16
2016-02-22T08:57:12.981Z,14.21
2016-02-22T08:58:12.936Z,14.17
2016-02-22T08:59:12.923Z,14.19
2016-02-22T09:00:12.894Z,14.2
2016-02-22T09:01:12.851Z,14.16
2016-02-22T09:02:12.838Z,14.2
2016-02-22T09:03:12.808Z,14.21
2016-02-22T09:04:12.796Z,14.2
2016-02-22T09:05:12.752Z,14.17
2016-02-22T09:06:12.755Z,14.19
2016-02-22T09:07:12.710Z,14.2
2016-02-22T09:08:12.697Z,14.19
2016-02-22T09:09:12.669Z,14.24
2016-02-22T09:10:12.688Z,14.24
2016-02-22T09:11:12.627Z,14.25
2016-02-22T09:12:12.599Z,14.17
2016-02-22T09:13:12.571Z,14.27
2016-02-22T09:14:12.573Z,14.13
2016-02-22T09:15:12.529Z,14.21
2016-02-22T09:16:12.500Z,14.2
2016-02-22T09:17:12.487Z,14.2
2016-02-22T09:18:12.443Z,14.19
2016-02-22T09:19:12.431Z,14.16
2016-02-22T09:20:12.418Z,14.21
2016-02-22T09:21:12.389Z,14.24
2016-02-22T09:22:12.470Z,14.17
2016-02-22T09:23:12.362Z,14.21
2016-02-22T09:24:12.334Z,14.21
2016-02-22T09:25:12.353Z,14.2
2016-02-22T09:26:12.511Z,14.21
2016-02-22T09:27:12.280Z,14.21
2016-02-22T09:28:12.205Z,14.2
2016-02-22T09:29:12.223Z,14.14
2016-02-22T09:30:12.178Z,14.24
2016-02-22T09:31:12.228Z,14.27
2016-02-22T09:32:12.153Z,14.2
2016-02-22T09:33:12.093Z,14.19
2016-02-22T09:34:12.096Z,14.25
2016-02-22T09:35:12.052Z,14.24
2016-02-22T09:36:12.022Z,14.25
2016-02-22T09:37:11.994Z,14.24
2016-02-22T09:38:11.997Z,14.19
2016-02-22T09:39:11.985Z,14.2
2016-02-22T09:40:11.799Z,14.2
2016-02-22T09:41:12.365Z,14.27
2016-02-22T09:42:11.914Z,14.2
2016-02-22T09:43:11.854Z,14.2
2016-02-22T09:44:11.841Z,14.2
2016-02-22T09:45:11.875Z,14.19
2016-02-22T09:46:11.832Z,14.13
2016-02-22T09:47:11.771Z,14.2
2016-02-22T09:48:11.742Z,14.16
2016-02-22T09:49:11.729Z,14.16
2016-02-22T09:50:11.701Z,14.16
2016-02-22T09:51:11.673Z,14.2
2016-02-22T09:52:11.675Z,14.27
2016-02-22T09:53:11.632Z,14.16
2016-02-22T09:54:11.586Z,14.19
2016-02-22T09:55:11.590Z,14.19
2016-02-22T09:56:11.561Z,14.19
2016-02-22T09:57:11.532Z,14.19
2016-02-22T09:58:11.520Z,14.25
2016-02-22T09:59:11.492Z,14.19
2016-02-22T10:00:11.462Z,14.16
2016-02-22T10:01:11.450Z,14.19
2016-02-22T10:02:11.405Z,14.2
2016-02-22T10:03:11.408Z,14.24
2016-02-22T10:04:11.395Z,14.17
2016-02-22T10:05:11.366Z,14.14
2016-02-22T10:06:11.307Z,14.21
2016-02-22T10:07:11.310Z,14.21
2016-02-22T10:08:11.265Z,14.21
2016-02-22T10:09:11.252Z,14.25
2016-02-22T10:10:11.238Z,14.21
2016-02-22T10:11:11.210Z,14.29
2016-02-22T10:12:11.198Z,14.19
2016-02-22T10:13:11.154Z,14.2
2016-02-22T10:14:11.124Z,14.14
2016-02-22T10:15:11.097Z,14.2
2016-02-22T10:16:11.084Z,14.19
2016-02-22T10:17:11.054Z,14.17
2016-02-22T10:18:11.152Z,14.2
2016-02-22T10:19:11.013Z,14.2
2016-02-22T10:20:11.001Z,14.2
2016-02-22T10:21:11.018Z,14.25
2016-02-22T10:22:10.943Z,14.29
2016-02-22T10:23:10.915Z,14.31
2016-02-22T10:24:10.887Z,14.28
2016-02-22T10:25:10.873Z,14.21
2016-02-22T10:26:10.923Z,14.31
2016-02-22T10:27:10.817Z,14.27
2016-02-22T10:28:10.803Z,14.27
2016-02-22T10:29:10.775Z,14.31
2016-02-22T10:30:10.746Z,14.34
2016-02-22T10:31:10.920Z,14.32
2016-02-22T10:32:10.705Z,14.35
2016-02-22T10:33:10.676Z,14.29
2016-02-22T10:34:10.663Z,14.25
2016-02-22T10:35:10.619Z,14.31
2016-02-22T10:36:10.606Z,14.32
2016-02-22T10:37:10.593Z,14.28
2016-02-22T10:38:10.564Z,14.28
2016-02-22T10:39:10.536Z,14.27
2016-02-22T10:40:10.508Z,14.31
2016-02-22T10:41:10.494Z,14.34
2016-02-22T10:42:10.450Z,14.34
2016-02-22T10:43:10.452Z,14.29
2016-02-22T10:44:10.424Z,14.34
2016-02-22T10:45:10.396Z,14.24
2016-02-22T10:46:10.383Z,14.35
2016-02-22T10:47:10.354Z,14.32
2016-02-22T10:48:10.310Z,14.32
2016-02-22T10:49:10.298Z,14.27
2016-02-22T10:50:10.268Z,14.31
2016-02-22T10:51:10.256Z,14.32
2016-02-22T10:52:10.087Z,14.34
2016-02-22T10:53:10.246Z,14.31
2016-02-22T10:54:10.186Z,14.32
2016-02-22T10:55:10.189Z,14.39
2016-02-22T10:56:10.145Z,14.28
2016-02-22T10:57:10.100Z,14.27
2016-02-22T10:58:10.103Z,14.35
2016-02-22T10:59:10.059Z,14.34
2016-02-22T11:00:10.046Z,14.32
2016-02-22T11:01:10.001Z,14.35
2016-02-22T11:02:09.973Z,14.37
2016-02-22T11:03:09.960Z,14.34
2016-02-22T11:04:09.947Z,14.35
2016-02-22T11:05:09.919Z,14.28
2016-02-22T11:06:09.890Z,14.32
2016-02-22T11:07:09.861Z,14.32
2016-02-22T11:08:09.849Z,14.28
2016-02-22T11:09:09.819Z,14.32
2016-02-22T11:10:09.807Z,14.34
2016-02-22T11:11:09.763Z,14.32
2016-02-22T11:12:09.749Z,14.29
2016-02-22T11:13:09.721Z,14.28
2016-02-22T11:14:09.724Z,14.35
2016-02-22T11:15:09.821Z,14.31
2016-02-22T11:16:09.479Z,14.25
2016-02-22T11:17:09.685Z,14.29
2016-02-22T11:18:09.625Z,14.28
2016-02-22T11:19:09.582Z,14.38
2016-02-22T11:20:09.584Z,14.25
2016-02-22T11:21:09.524Z,14.31
2016-02-22T11:22:09.526Z,14.38
2016-02-22T11:23:09.498Z,14.34
2016-02-22T11:24:09.470Z,14.32
2016-02-22T11:25:09.441Z,14.28
2016-02-22T11:26:09.428Z,14.28
2016-02-22T11:27:09.400Z,14.29
2016-02-22T11:28:09.543Z,14.38
2016-02-22T11:29:09.358Z,14.34
2016-02-22T11:30:09.329Z,14.29
2016-02-22T11:31:09.300Z,14.29
2016-02-22T11:32:09.273Z,14.24
2016-02-22T11:33:09.259Z,14.31
2016-02-22T11:34:09.231Z,14.28
2016-02-22T11:35:09.202Z,14.27
2016-02-22T11:36:09.189Z,14.38
2016-02-22T11:37:09.177Z,14.32
2016-02-22T11:38:09.147Z,14.31
2016-02-22T11:39:09.135Z,14.29
2016-02-22T11:40:09.091Z,14.28
2016-02-22T11:41:09.063Z,14.32
2016-02-22T11:42:09.033Z,14.35
2016-02-22T11:43:09.005Z,14.32
2016-02-22T11:44:08.991Z,14.28
2016-02-22T11:45:08.964Z,14.37
2016-02-22T11:46:08.935Z,14.37
2016-02-22T11:47:08.922Z,14.38
2016-02-22T11:48:08.909Z,14.34
2016-02-22T11:49:08.865Z,14.37
2016-02-22T11:50:08.837Z,14.35
2016-02-22T11:51:08.824Z,14.38
2016-02-22T11:52:08.795Z,14.37
2016-02-22T11:53:08.765Z,14.27
2016-02-22T11:54:08.754Z,14.28
2016-02-22T11:55:08.725Z,14.32
2016-02-22T11:56:08.696Z,14.28
2016-02-22T11:57:08.698Z,14.35
2016-02-22T11:58:08.671Z,14.34
2016-02-22T11:59:08.626Z,14.38
2016-02-22T12:00:08.598Z,14.25
2016-02-22T12:01:08.584Z,14.24
2016-02-22T12:02:08.556Z,14.39
2016-02-22T12:03:08.559Z,14.42
2016-02-22T12:04:08.514Z,14.34
2016-02-22T12:05:08.345Z,14.25
2016-02-22T12:06:08.472Z,14.28
2016-02-22T12:07:08.461Z,14.39
2016-02-22T12:08:08.416Z,14.37
2016-02-22T12:09:08.388Z,14.34
2016-02-22T12:10:08.218Z,14.34
2016-02-22T12:11:08.362Z,14.34
2016-02-22T12:12:08.333Z,14.32
2016-02-22T12:13:08.320Z,14.35
2016-02-22T12:14:08.432Z,14.34
2016-02-22T12:15:08.262Z,14.38
2016-02-22T12:16:08.219Z,14.35
2016-02-22T12:17:08.206Z,14.35
2016-02-22T12:18:08.193Z,14.28
2016-02-22T12:19:08.179Z,14.37
2016-02-22T12:20:08.136Z,14.21
2016-02-22T12:21:08.107Z,14.34
2016-02-22T12:22:08.079Z,14.28
2016-02-22T12:23:08.050Z,14.28
2016-02-22T12:24:08.069Z,14.31
2016-02-22T12:25:08.290Z,14.38
2016-02-22T12:26:07.980Z,14.32
2016-02-22T12:27:07.982Z,14.32
2016-02-22T12:28:07.938Z,14.29
2016-02-22T12:29:07.926Z,14.2
2016-02-22T12:30:07.882Z,14.28
2016-02-22T12:31:07.884Z,14.24
2016-02-22T12:32:07.839Z,14.39
2016-02-22T12:33:07.843Z,14.28
2016-02-22T12:34:07.798Z,14.27
2016-02-22T12:35:07.786Z,14.28
2016-02-22T12:36:07.756Z,14.34
2016-02-22T12:37:07.745Z,14.37
2016-02-22T12:38:07.699Z,14.35
2016-02-22T12:39:07.687Z,14.39
2016-02-22T12:40:07.642Z,14.43
2016-02-22T12:41:07.629Z,14.38
2016-02-22T12:42:07.633Z,14.24
2016-02-22T12:43:07.573Z,14.28
2016-02-22T12:44:07.560Z,14.35
2016-02-22T12:45:07.546Z,14.37
2016-02-22T12:46:07.519Z,14.31
2016-02-22T12:47:07.521Z,14.35
2016-02-22T12:48:07.461Z,14.24
2016-02-22T12:49:07.448Z,14.31
2016-02-22T12:50:07.435Z,14.37
2016-02-22T12:51:07.391Z,14.31
2016-02-22T12:52:07.394Z,14.31
2016-02-22T12:53:07.334Z,14.29
2016-02-22T12:54:07.326Z,14.28
2016-02-22T12:55:07.313Z,14.27